createdAt,value
2023-04-08T00:01:30.412Z,10.75
2023-04-08T00:03:59.295Z,12.25
2023-04-08T00:06:28.142Z,11.18
2023-04-08T00:08:58.051Z,10.10
2023-04-08T00:11:26.496Z,10.73
2023-04-08T00:13:55.004Z,14.00
2023-04-08T00:16:23.968Z,11.20
2023-04-08T00:18:56.909Z,9.20
2023-04-08T00:21:28.119Z,9.20
2023-04-08T00:23:57.969Z,8.77
2023-04-08T00:26:26.447Z,9.07
2023-04-08T00:28:55.393Z,8.18
2023-04-08T00:31:23.988Z,8.27
2023-04-08T00:33:52.652Z,8.90
2023-04-08T00:36:21.185Z,7.97
2023-04-08T00:38:50.090Z,8.13
2023-04-08T00:41:20.461Z,7.80
2023-04-08T00:43:49.253Z,8.48
2023-04-08T00:46:17.965Z,7.93
2023-04-08T00:48:46.738Z,7.93
2023-04-08T00:51:16.257Z,8.77
2023-04-08T00:53:44.773Z,7.70
2023-04-08T00:56:13.317Z,8.07
2023-04-08T00:58:43.268Z,7.60
2023-04-08T01:01:16.158Z,7.75
2023-04-08T01:03:58.553Z,8.07
2023-04-08T01:06:33.759Z,7.82
2023-04-08T01:09:05.984Z,7.10
2023-04-08T01:11:36.565Z,7.40
2023-04-08T01:14:10.246Z,7.32
2023-04-08T01:16:42.409Z,7.63
2023-04-08T01:19:18.916Z,7.47
2023-04-08T01:21:48.050Z,8.02
2023-04-08T01:24:22.063Z,8.07
2023-04-08T01:26:52.037Z,7.68
2023-04-08T01:29:21.379Z,7.63
2023-04-08T01:31:50.650Z,7.85
2023-04-08T01:34:20.764Z,7.28
2023-04-08T01:36:50.956Z,6.65
2023-04-08T01:39:21.665Z,6.82
2023-04-08T01:41:54.807Z,6.70
2023-04-08T01:44:24.114Z,6.15
2023-04-08T01:46:54.181Z,7.75
2023-04-08T01:49:25.327Z,7.32
2023-04-08T01:51:56.632Z,7.15
2023-04-08T01:54:25.253Z,7.10
2023-04-08T01:56:57.336Z,7.13
2023-04-08T01:59:31.196Z,7.85
2023-04-08T02:02:01.774Z,8.70
2023-04-08T02:04:30.559Z,7.82
2023-04-08T02:06:59.426Z,8.90
2023-04-08T02:09:27.981Z,9.75
2023-04-08T02:11:58.148Z,8.68
2023-04-08T02:14:27.221Z,7.85
2023-04-08T02:17:06.606Z,8.82
2023-04-08T02:19:44.761Z,8.20
2023-04-08T02:22:19.427Z,8.20
2023-04-08T02:27:19.490Z,7.03
2023-04-08T02:29:50.670Z,7.45
2023-04-08T02:32:19.884Z,7.13
2023-04-08T02:34:50.374Z,7.95
2023-04-08T02:37:18.981Z,7.13
2023-04-08T02:39:47.555Z,7.90
2023-04-08T02:42:16.119Z,8.10
2023-04-08T02:44:46.150Z,8.10
2023-04-08T02:47:14.719Z,7.05
2023-04-08T02:49:43.719Z,7.97
2023-04-08T02:52:12.292Z,7.35
2023-04-08T02:54:41.094Z,6.80
2023-04-08T02:57:10.772Z,7.45
2023-04-08T02:59:40.963Z,7.25
2023-04-08T03:02:11.474Z,6.55
2023-04-08T03:04:40.058Z,6.72
2023-04-08T03:07:08.839Z,6.90
2023-04-08T03:09:37.684Z,6.57
2023-04-08T03:12:07.218Z,6.22
2023-04-08T03:14:36.012Z,7.20
2023-04-08T03:17:04.466Z,6.72
2023-04-08T03:19:34.325Z,6.88
2023-04-08T03:22:02.819Z,6.78
2023-04-08T03:24:31.282Z,6.00
2023-04-08T03:26:59.775Z,6.22
2023-04-08T03:29:28.341Z,5.82
2023-04-08T03:31:56.979Z,6.07
2023-04-08T03:34:25.530Z,6.13
2023-04-08T03:36:55.641Z,5.63
2023-04-08T03:39:24.085Z,6.10
2023-04-08T03:41:52.611Z,6.70
2023-04-08T03:44:21.172Z,5.80
2023-04-08T03:46:49.622Z,5.60
2023-04-08T03:49:18.126Z,5.43
2023-04-08T03:51:46.663Z,5.60
2023-04-08T03:54:16.785Z,5.53
2023-04-08T03:56:45.282Z,5.53
2023-04-08T03:59:13.778Z,5.43
2023-04-08T04:01:42.394Z,6.05
2023-04-08T04:04:11.322Z,5.50
2023-04-08T04:06:40.063Z,5.47
2023-04-08T04:09:08.538Z,5.85
2023-04-08T04:11:38.493Z,5.32
2023-04-08T04:14:06.910Z,5.22
2023-04-08T04:16:35.526Z,5.20
2023-04-08T04:19:04.018Z,4.80
2023-04-08T04:21:32.598Z,5.72
2023-04-08T04:24:01.093Z,4.88
2023-04-08T04:26:29.584Z,4.80
2023-04-08T04:28:59.393Z,5.32
2023-04-08T04:31:28.107Z,4.45
2023-04-08T04:33:56.650Z,4.57
2023-04-08T04:36:25.129Z,4.18
2023-04-08T04:38:53.940Z,4.50
2023-04-08T04:41:22.975Z,5.15
2023-04-08T04:43:51.731Z,5.55
2023-04-08T04:46:21.728Z,8.15
2023-04-08T04:48:51.562Z,6.88
2023-04-08T04:51:20.174Z,6.43
2023-04-08T04:53:49.949Z,5.97
2023-04-08T04:56:18.408Z,7.03
2023-04-08T04:58:46.895Z,7.28
2023-04-08T05:01:15.681Z,6.32
2023-04-08T05:03:45.671Z,6.57
2023-04-08T05:06:14.192Z,6.20
2023-04-08T05:08:42.659Z,6.57
2023-04-08T05:11:11.548Z,5.70
2023-04-08T05:13:40.171Z,5.57
2023-04-08T05:16:09.178Z,5.93
2023-04-08T05:18:38.019Z,5.75
2023-04-08T05:21:07.866Z,5.45
2023-04-08T05:23:36.483Z,7.60
2023-04-08T05:26:08.326Z,6.38
2023-04-08T05:28:37.245Z,8.38
2023-04-08T05:31:05.894Z,8.52
2023-04-08T05:33:34.374Z,9.88
2023-04-08T05:36:03.072Z,7.90
2023-04-08T05:38:32.928Z,7.95
2023-04-08T05:41:01.729Z,7.57
2023-04-08T05:43:30.341Z,7.10
2023-04-08T05:45:58.929Z,8.05
2023-04-08T05:48:27.390Z,6.88
2023-04-08T05:50:55.987Z,6.95
2023-04-08T05:53:24.988Z,6.65
2023-04-08T05:55:54.947Z,7.07
2023-04-08T05:58:23.440Z,6.57
2023-04-08T06:00:51.927Z,7.00
2023-04-08T06:03:21.012Z,7.75
2023-04-08T06:05:49.679Z,6.97
2023-04-08T06:08:18.170Z,8.25
2023-04-08T06:10:51.419Z,10.75
2023-04-08T06:13:22.016Z,8.63
2023-04-08T06:15:50.746Z,7.82
2023-04-08T06:18:19.197Z,8.45
2023-04-08T06:20:47.775Z,9.63
2023-04-08T06:23:16.551Z,7.60
2023-04-08T06:25:45.185Z,8.18
2023-04-08T06:28:13.785Z,7.43
2023-04-08T06:30:43.572Z,7.45
2023-04-08T06:33:12.046Z,8.88
2023-04-08T06:35:40.638Z,8.65
2023-04-08T06:38:09.151Z,8.18
2023-04-08T06:40:40.582Z,7.97
2023-04-08T06:43:08.965Z,8.77
2023-04-08T06:45:42.919Z,11.15
2023-04-08T06:48:12.877Z,10.85
2023-04-08T06:50:41.288Z,7.90
2023-04-08T06:53:09.818Z,7.90
2023-04-08T06:55:38.292Z,9.32
2023-04-08T06:58:06.818Z,11.40
2023-04-08T07:00:35.734Z,10.98
2023-04-08T07:03:04.354Z,9.02
2023-04-08T07:05:36.861Z,10.88
2023-04-08T07:08:05.588Z,8.73
2023-04-08T07:10:34.166Z,8.77
2023-04-08T07:13:02.656Z,14.88
2023-04-08T07:15:31.373Z,11.88
2023-04-08T07:18:00.117Z,11.20
2023-04-08T07:20:30.261Z,11.02
2023-04-08T07:23:01.409Z,11.00
2023-04-08T07:25:29.923Z,11.02
2023-04-08T07:27:58.618Z,11.98
2023-04-08T07:30:27.107Z,15.30
2023-04-08T07:32:56.564Z,11.65
2023-04-08T07:35:26.438Z,11.23
2023-04-08T07:37:55.106Z,11.82
2023-04-08T07:40:25.332Z,10.80
2023-04-08T07:42:54.360Z,11.27
2023-04-08T07:45:22.926Z,10.90
2023-04-08T07:47:51.530Z,10.23
2023-04-08T07:50:20.210Z,12.85
2023-04-08T07:52:48.813Z,10.80
2023-04-08T07:55:17.474Z,11.52
2023-04-08T07:57:47.711Z,15.02
2023-04-08T08:00:21.513Z,14.52
2023-04-08T08:02:50.103Z,12.90
2023-04-08T08:05:19.018Z,11.60
2023-04-08T08:07:47.459Z,13.35
2023-04-08T08:10:16.109Z,11.95
2023-04-08T08:12:44.550Z,10.30
2023-04-08T08:15:14.882Z,11.05
2023-04-08T08:17:43.253Z,12.48
2023-04-08T08:20:12.571Z,15.30
2023-04-08T08:22:50.798Z,15.50
2023-04-08T08:25:26.258Z,14.90
2023-04-08T08:27:55.546Z,14.30
2023-04-08T08:30:26.551Z,11.57
2023-04-08T08:32:59.046Z,11.63
2023-04-08T08:35:27.794Z,12.23
2023-04-08T08:37:56.296Z,14.52
2023-04-08T08:40:24.943Z,15.48
2023-04-08T08:42:54.232Z,13.85
2023-04-08T08:45:22.838Z,12.60
2023-04-08T08:47:52.753Z,13.57
2023-04-08T08:50:21.502Z,11.07
2023-04-08T08:52:50.778Z,11.85
2023-04-08T08:55:34.977Z,13.52
2023-04-08T08:58:05.674Z,10.48
2023-04-08T09:00:35.056Z,11.40
2023-04-08T09:03:19.389Z,12.68
2023-04-08T09:05:52.817Z,12.13
2023-04-08T09:08:26.293Z,11.88
2023-04-08T09:10:55.030Z,15.65
2023-04-08T09:13:24.659Z,17.40
2023-04-08T09:16:05.086Z,16.00
2023-04-08T09:18:35.702Z,19.65
2023-04-08T09:21:05.497Z,21.35
2023-04-08T09:23:44.366Z,18.50
2023-04-08T09:26:14.745Z,17.02
2023-04-08T09:28:44.850Z,17.52
2023-04-08T09:31:21.598Z,21.50
2023-04-08T09:33:52.458Z,17.20
2023-04-08T09:36:21.183Z,19.45
2023-04-08T09:38:49.995Z,19.33
2023-04-08T09:41:20.561Z,18.55
2023-04-08T09:43:50.726Z,19.35
2023-04-08T09:46:22.732Z,20.77
2023-04-08T09:49:04.357Z,20.48
2023-04-08T09:51:37.761Z,20.77
2023-04-08T09:54:14.893Z,21.58
2023-04-08T09:56:48.953Z,20.73
2023-04-08T09:59:21.699Z,18.92
2023-04-08T10:01:54.931Z,19.00
2023-04-08T10:04:27.713Z,22.63
2023-04-08T10:07:03.497Z,20.10
2023-04-08T10:09:32.973Z,19.30
2023-04-08T10:12:02.991Z,20.48
2023-04-08T10:14:31.446Z,17.88
2023-04-08T10:17:28.486Z,19.23
2023-04-08T10:19:58.877Z,19.55
2023-04-08T10:22:51.864Z,18.95
2023-04-08T10:25:31.488Z,20.60
2023-04-08T10:28:00.591Z,18.73
2023-04-08T10:30:41.028Z,18.50
2023-04-08T10:33:12.416Z,18.73
2023-04-08T10:35:46.447Z,17.00
2023-04-08T10:38:16.015Z,14.85
2023-04-08T10:40:45.962Z,13.57
2023-04-08T10:43:15.963Z,12.13
2023-04-08T10:45:48.552Z,11.05
2023-04-08T10:48:19.875Z,10.52
2023-04-08T10:50:56.112Z,10.38
2023-04-08T10:53:28.419Z,10.48
2023-04-08T10:56:05.518Z,9.85
2023-04-08T10:58:34.231Z,10.45
2023-04-08T11:01:08.348Z,9.95
2023-04-08T11:03:38.151Z,9.73
2023-04-08T11:06:08.438Z,9.60
2023-04-08T11:08:37.990Z,7.57
2023-04-08T11:11:09.216Z,7.65
2023-04-08T11:13:38.563Z,7.45
2023-04-08T11:16:17.871Z,7.55
2023-04-08T11:18:48.207Z,7.07
2023-04-08T11:21:18.454Z,6.82
2023-04-08T11:23:51.177Z,6.43
2023-04-08T11:26:21.149Z,6.72
2023-04-08T11:28:51.583Z,6.85
2023-04-08T11:31:24.374Z,6.50
2023-04-08T11:33:56.248Z,6.40
2023-04-08T11:36:27.386Z,6.13
2023-04-08T11:38:56.489Z,5.90
2023-04-08T11:41:25.142Z,6.18
2023-04-08T11:43:54.903Z,6.10
2023-04-08T11:46:24.127Z,5.68
2023-04-08T11:49:02.529Z,6.97
2023-04-08T11:51:32.710Z,6.35
2023-04-08T11:54:01.673Z,6.05
2023-04-08T11:56:33.619Z,7.15
2023-04-08T11:59:02.460Z,5.10
2023-04-08T12:01:30.977Z,5.57
2023-04-08T12:04:03.175Z,5.90
2023-04-08T12:06:33.238Z,5.97
2023-04-08T12:09:01.763Z,6.13
2023-04-08T12:11:30.711Z,5.20
2023-04-08T12:13:59.273Z,5.18
2023-04-08T12:16:27.842Z,5.15
2023-04-08T12:18:56.440Z,5.30
2023-04-08T12:21:24.938Z,4.93
2023-04-08T12:23:55.297Z,5.15
2023-04-08T12:26:24.428Z,4.90
2023-04-08T12:28:53.199Z,4.40
2023-04-08T12:31:22.741Z,3.90
2023-04-08T12:33:51.651Z,4.20
2023-04-08T12:36:20.520Z,4.85
2023-04-08T12:38:49.389Z,4.88
2023-04-08T12:41:19.473Z,4.00
2023-04-08T12:43:48.083Z,4.53
2023-04-08T12:46:16.978Z,5.22
2023-04-08T12:48:47.598Z,4.53
2023-04-08T12:51:16.641Z,4.38
2023-04-08T12:53:45.340Z,4.72
2023-04-08T12:56:14.109Z,5.53
2023-04-08T12:58:44.150Z,5.40
2023-04-08T13:01:13.361Z,5.55
2023-04-08T13:03:45.029Z,6.10
2023-04-08T13:06:15.689Z,5.32
2023-04-08T13:08:47.305Z,5.40
2023-04-08T13:11:16.050Z,5.80
2023-04-08T13:13:46.461Z,5.78
2023-04-08T13:16:15.456Z,6.20
2023-04-08T13:18:44.565Z,5.55
2023-04-08T13:21:13.209Z,5.10
2023-04-08T13:23:41.899Z,6.28
2023-04-08T13:26:12.375Z,6.72
2023-04-08T13:28:55.848Z,6.90
2023-04-08T13:31:27.775Z,7.57
2023-04-08T13:33:58.168Z,7.90
2023-04-08T13:36:29.078Z,9.75
2023-04-08T13:38:57.833Z,9.85
2023-04-08T13:41:28.231Z,9.93
2023-04-08T13:43:57.716Z,9.88
2023-04-08T13:46:28.217Z,9.70
2023-04-08T13:48:57.690Z,9.23
2023-04-08T13:51:27.386Z,10.40
2023-04-08T13:53:56.401Z,9.02
2023-04-08T13:56:25.234Z,8.90
2023-04-08T13:58:57.482Z,9.32
2023-04-08T14:01:28.293Z,11.00
2023-04-08T14:03:59.771Z,10.88
2023-04-08T14:06:28.690Z,10.75
2023-04-08T14:08:57.441Z,10.90
2023-04-08T14:11:26.409Z,9.32
2023-04-08T14:13:55.009Z,9.38
2023-04-08T14:16:23.944Z,8.30
2023-04-08T14:18:54.427Z,7.97
2023-04-08T14:21:23.498Z,8.10
2023-04-08T14:23:52.645Z,8.27
2023-04-08T14:26:22.174Z,9.43
2023-04-08T14:28:51.640Z,9.65
2023-04-08T14:31:20.657Z,10.38
2023-04-08T14:33:55.090Z,10.57
2023-04-08T14:36:26.001Z,10.00
2023-04-08T14:38:55.175Z,10.32
2023-04-08T14:41:26.342Z,8.90
2023-04-08T14:43:55.575Z,8.32
2023-04-08T14:46:27.295Z,7.05
2023-04-08T14:48:59.041Z,7.05
2023-04-08T14:51:31.236Z,7.13
2023-04-08T14:54:02.146Z,7.47
2023-04-08T14:56:32.628Z,7.10
2023-04-08T14:59:02.914Z,7.50
2023-04-08T15:01:34.047Z,8.15
2023-04-08T15:04:04.216Z,7.63
2023-04-08T15:06:35.831Z,7.65
2023-04-08T15:09:05.691Z,7.25
2023-04-08T15:11:34.759Z,6.60
2023-04-08T15:14:03.411Z,6.90
2023-04-08T15:16:33.102Z,7.45
2023-04-08T15:19:02.496Z,6.13
2023-04-08T15:21:34.265Z,6.35
2023-04-08T15:24:03.425Z,7.03
2023-04-08T15:26:33.250Z,6.68
2023-04-08T15:29:04.887Z,5.70
2023-04-08T15:31:35.827Z,6.00
2023-04-08T15:34:07.658Z,5.65
2023-04-08T15:36:40.522Z,6.90
2023-04-08T15:39:11.798Z,6.28
2023-04-08T15:41:41.948Z,7.03
2023-04-08T15:44:12.560Z,5.70
2023-04-08T15:46:43.186Z,5.90
2023-04-08T15:49:12.465Z,7.10
2023-04-08T15:51:45.723Z,7.20
2023-04-08T15:54:15.128Z,6.82
2023-04-08T15:56:45.795Z,6.40
2023-04-08T15:59:15.038Z,7.57
2023-04-08T16:01:44.362Z,8.77
2023-04-08T16:04:14.474Z,9.45
2023-04-08T16:06:49.372Z,8.05
2023-04-08T16:09:22.536Z,10.80
2023-04-08T16:11:55.802Z,11.90
2023-04-08T16:14:33.001Z,10.68
2023-04-08T16:17:05.168Z,11.13
2023-04-08T16:19:34.130Z,10.07
2023-04-08T16:22:08.752Z,10.13
2023-04-08T16:24:43.717Z,12.55
2023-04-08T16:27:14.793Z,11.45
2023-04-08T16:29:44.914Z,11.90
2023-04-08T16:32:15.469Z,11.52
2023-04-08T16:34:47.638Z,11.07
2023-04-08T16:37:18.683Z,9.32
2023-04-08T16:39:48.843Z,10.02
2023-04-08T16:42:18.821Z,9.95
2023-04-08T16:44:48.844Z,8.40
2023-04-08T16:47:19.006Z,7.45
2023-04-08T16:49:50.312Z,9.57
2023-04-08T16:52:22.077Z,7.80
2023-04-08T16:54:53.340Z,7.20
2023-04-08T16:57:23.184Z,6.63
2023-04-08T16:59:52.358Z,6.78
2023-04-08T17:02:22.400Z,5.80
2023-04-08T17:04:52.377Z,6.00
2023-04-08T17:07:23.846Z,6.10
2023-04-08T17:09:53.740Z,6.40
2023-04-08T17:12:23.783Z,6.75
2023-04-08T17:14:53.614Z,6.82
2023-04-08T17:17:23.402Z,6.22
2023-04-08T17:19:52.077Z,5.82
2023-04-08T17:22:23.661Z,6.45
2023-04-08T17:24:53.647Z,6.55
2023-04-08T17:27:26.768Z,6.45
2023-04-08T17:29:58.840Z,6.17
2023-04-08T17:32:28.896Z,6.00
2023-04-08T17:35:00.348Z,5.82
2023-04-08T17:37:33.731Z,5.45
2023-04-08T17:40:03.732Z,5.60
2023-04-08T17:42:33.795Z,5.55
2023-04-08T17:45:03.551Z,5.55
2023-04-08T17:47:33.895Z,4.88
2023-04-08T17:50:03.877Z,5.20
2023-04-08T17:52:35.356Z,5.63
2023-04-08T17:55:06.856Z,5.43
2023-04-08T17:57:36.209Z,5.32
2023-04-08T18:00:07.379Z,5.60
2023-04-08T18:02:38.148Z,5.72
2023-04-08T18:05:08.109Z,6.68
2023-04-08T18:07:38.533Z,6.68
2023-04-08T18:10:09.521Z,6.80
2023-04-08T18:12:38.584Z,6.78
2023-04-08T18:15:10.769Z,6.65
2023-04-08T18:17:41.389Z,8.63
2023-04-08T18:20:13.867Z,7.93
2023-04-08T18:22:49.656Z,8.38
2023-04-08T18:25:24.234Z,7.78
2023-04-08T18:27:56.890Z,9.30
2023-04-08T18:30:29.314Z,10.15
2023-04-08T18:32:58.575Z,8.65
2023-04-08T18:35:27.935Z,8.15
2023-04-08T18:37:58.065Z,7.72
2023-04-08T18:40:28.712Z,7.70
2023-04-08T18:43:02.073Z,7.43
2023-04-08T18:45:31.879Z,7.05
2023-04-08T18:48:01.192Z,6.65
2023-04-08T18:50:31.491Z,7.03
2023-04-08T18:53:05.590Z,7.05
2023-04-08T18:55:38.958Z,7.43
2023-04-08T18:58:12.704Z,7.78
2023-04-08T19:00:44.142Z,7.03
2023-04-08T19:03:13.863Z,6.63
2023-04-08T19:05:44.952Z,7.20
2023-04-08T19:08:19.117Z,6.72
2023-04-08T19:13:23.997Z,5.93
2023-04-08T19:15:55.055Z,6.10
2023-04-08T19:18:24.479Z,7.07
2023-04-08T19:20:54.106Z,7.32
2023-04-08T19:23:25.923Z,7.70
2023-04-08T19:25:57.962Z,7.95
2023-04-08T19:28:27.455Z,8.45
2023-04-08T19:31:01.443Z,8.23
2023-04-08T19:33:38.095Z,7.90
2023-04-08T19:36:07.521Z,8.82
2023-04-08T19:38:39.647Z,7.95
2023-04-08T19:41:09.855Z,7.50
2023-04-08T19:43:40.706Z,7.63
2023-04-08T19:46:12.095Z,7.75
2023-04-08T19:48:45.392Z,7.03
2023-04-08T19:51:22.745Z,7.70
2023-04-08T19:53:53.620Z,8.00
2023-04-08T19:56:23.221Z,9.05
2023-04-08T19:58:54.069Z,7.65
2023-04-08T20:01:24.878Z,8.82
2023-04-08T20:03:55.354Z,9.10
2023-04-08T20:06:24.431Z,8.68
2023-04-08T20:08:56.152Z,8.93
2023-04-08T20:11:25.189Z,8.88
2023-04-08T20:13:54.488Z,9.05
2023-04-08T20:16:24.091Z,9.63
2023-04-08T20:18:53.656Z,9.25
2023-04-08T20:21:24.550Z,10.02
2023-04-08T20:23:57.273Z,9.35
2023-04-08T20:26:27.822Z,9.50
2023-04-08T20:28:59.204Z,9.50
2023-04-08T20:31:28.365Z,9.13
2023-04-08T20:33:58.407Z,9.45
2023-04-08T20:36:29.909Z,9.88
2023-04-08T20:39:04.923Z,10.40
2023-04-08T20:41:37.139Z,8.80
2023-04-08T20:44:10.748Z,9.32
2023-04-08T20:49:12.582Z,8.75
2023-04-08T20:51:43.451Z,8.50
2023-04-08T20:54:17.060Z,9.25
2023-04-08T20:56:46.504Z,9.45
2023-04-08T20:59:16.724Z,9.27
2023-04-08T21:01:49.589Z,8.05
2023-04-08T21:04:19.251Z,8.70
2023-04-08T21:06:50.456Z,9.40
2023-04-08T21:09:22.873Z,8.50
2023-04-08T21:11:52.753Z,8.18
2023-04-08T21:14:22.847Z,7.72
2023-04-08T21:16:53.919Z,7.90
2023-04-08T21:19:24.116Z,7.50
2023-04-08T21:21:53.688Z,7.18
2023-04-08T21:24:24.977Z,8.43
2023-04-08T21:26:56.647Z,7.40
2023-04-08T21:29:27.067Z,7.88
2023-04-08T21:31:57.056Z,8.20
2023-04-08T21:34:27.688Z,7.65
2023-04-08T21:36:58.283Z,9.13
2023-04-08T21:39:29.444Z,7.53
2023-04-08T21:42:00.778Z,7.38
2023-04-08T21:44:32.025Z,7.22
2023-04-08T21:47:02.383Z,8.13
2023-04-08T21:49:33.377Z,9.15
2023-04-08T21:52:05.066Z,8.68
2023-04-08T21:54:37.042Z,8.27
2023-04-08T21:57:07.688Z,7.70
2023-04-08T21:59:39.198Z,9.32
2023-04-08T22:02:11.858Z,9.73
2023-04-08T22:04:42.709Z,8.60
2023-04-08T22:07:14.307Z,7.75
2023-04-08T22:09:51.165Z,8.52
2023-04-08T22:12:22.162Z,10.13
2023-04-08T22:14:52.775Z,9.23
2023-04-08T22:17:23.171Z,9.52
2023-04-08T22:19:54.992Z,10.20
2023-04-08T22:22:25.711Z,10.15
2023-04-08T22:24:59.056Z,9.15
2023-04-08T22:27:30.197Z,8.85
2023-04-08T22:30:00.430Z,8.95
2023-04-08T22:32:30.173Z,8.85
2023-04-08T22:35:00.958Z,8.50
2023-04-08T22:37:30.468Z,8.88
2023-04-08T22:40:04.897Z,8.85
2023-04-08T22:45:05.249Z,7.95
2023-04-08T22:47:36.706Z,9.43
2023-04-08T22:50:07.155Z,9.27
2023-04-08T22:52:38.633Z,9.10
2023-04-08T22:55:11.751Z,9.23
2023-04-08T22:57:41.948Z,9.40
2023-04-08T23:00:13.447Z,9.38
2023-04-08T23:02:45.287Z,10.20
2023-04-08T23:05:15.734Z,9.68
2023-04-08T23:07:46.887Z,9.05
2023-04-08T23:10:19.074Z,9.77
2023-04-08T23:12:50.637Z,10.10
2023-04-08T23:15:21.365Z,9.93
2023-04-08T23:17:53.516Z,9.00
2023-04-08T23:20:24.158Z,10.10
2023-04-08T23:22:54.559Z,9.52
2023-04-08T23:25:25.756Z,9.18
2023-04-08T23:27:55.838Z,8.88
2023-04-08T23:30:26.880Z,9.20
2023-04-08T23:32:58.875Z,10.25
2023-04-08T23:35:28.496Z,9.07
2023-04-08T23:37:59.542Z,9.05
2023-04-08T23:40:31.868Z,10.15
2023-04-08T23:43:02.728Z,9.35
2023-04-08T23:45:35.473Z,9.82
2023-04-08T23:48:05.165Z,9.30
2023-04-08T23:50:34.939Z,9.27
2023-04-08T23:53:04.305Z,9.43
2023-04-08T23:55:36.511Z,8.73
2023-04-08T23:58:07.705Z,9.05
